Time;durP1;ratioP1;P1;durP2;ratioP2;P2;SDS_P1;SDS_P2;PMS_P1;PMS_P2;Temp;Humidity;BMP_temperature;BMP_pressure;BME280_temperature;BME280_humidity;BME280_pressure;Samples;Min_cycle;Max_cycle;Signal;HPM_P1;HPM_P2
2022/06/14 00:01:13;;;;;;;13.98;2.95;;;12.00;99.90;;;;;;5058949;28;20139;-66
2022/06/14 00:03:42;;;;;;;8.13;3.10;;;12.10;99.90;;;;;;5051195;28;20794;-66
2022/06/14 00:06:29;;;;;;;11.02;3.10;;;12.10;99.90;;;;;;5057371;28;20040;-66
2022/06/14 00:08:55;;;;;;;5.00;2.20;;;12.10;99.90;;;;;;5062711;28;20512;-66
2022/06/14 00:11:25;;;;;;;7.47;2.55;;;12.10;99.90;;;;;;5057430;28;20037;-66
2022/06/14 00:13:53;;;;;;;9.30;3.40;;;12.10;99.90;;;;;;5052886;28;20533;-66
2022/06/14 00:16:20;;;;;;;8.05;2.70;;;12.10;99.90;;;;;;5054057;28;20534;-67
2022/06/14 00:18:46;;;;;;;12.10;2.30;;;12.10;99.90;;;;;;5051867;28;20544;-66
2022/06/14 00:21:12;;;;;;;7.18;2.80;;;12.10;99.90;;;;;;5055124;28;20053;-66
2022/06/14 00:23:38;;;;;;;9.82;3.08;;;12.10;99.90;;;;;;5052581;28;20485;-66
2022/06/14 00:26:05;;;;;;;11.25;3.03;;;12.10;99.90;;;;;;5056685;28;20132;-66
2022/06/14 00:28:32;;;;;;;9.73;3.20;;;12.10;99.90;;;;;;5051377;28;20075;-67
2022/06/14 00:31:02;;;;;;;11.65;3.00;;;12.10;99.90;;;;;;5053919;28;20652;-66
2022/06/14 00:33:28;;;;;;;12.45;2.75;;;12.20;99.90;;;;;;5054604;28;20041;-67
2022/06/14 00:36:01;;;;;;;16.02;2.70;;;12.20;99.90;;;;;;5055378;28;20436;-66
2022/06/14 00:38:27;;;;;;;14.80;3.13;;;12.20;99.90;;;;;;5056657;28;20044;-66
2022/06/14 00:40:56;;;;;;;9.32;2.95;;;12.10;99.90;;;;;;5051589;28;20040;-66
2022/06/14 00:43:23;;;;;;;7.57;2.67;;;12.10;99.90;;;;;;5049262;28;20059;-66
2022/06/14 00:45:52;;;;;;;9.43;3.05;;;12.10;99.90;;;;;;5058691;28;20497;-66
2022/06/14 00:48:24;;;;;;;8.77;3.00;;;12.20;99.90;;;;;;5054879;28;20170;-66
2022/06/14 00:51:13;;;;;;;16.23;3.60;;;12.10;99.90;;;;;;5054520;28;20132;-66
2022/06/14 00:54:00;;;;;;;6.78;2.80;;;12.10;99.90;;;;;;5054422;28;20289;-66
2022/06/14 00:56:33;;;;;;;8.90;2.95;;;12.10;99.90;;;;;;5057834;28;20485;-66
2022/06/14 00:59:24;;;;;;;11.43;2.90;;;12.10;99.90;;;;;;5055385;28;20055;-66
2022/06/14 01:01:56;;;;;;;8.43;3.13;;;12.00;99.90;;;;;;5055191;28;20052;-66
2022/06/14 01:04:25;;;;;;;8.17;3.13;;;11.90;99.90;;;;;;5054866;28;20056;-66
2022/06/14 01:06:51;;;;;;;9.68;3.00;;;11.90;99.90;;;;;;5049694;28;21309;-66
2022/06/14 01:09:26;;;;;;;10.82;3.65;;;11.90;99.90;;;;;;5055168;28;20861;-66
2022/06/14 01:11:58;;;;;;;14.77;3.72;;;11.90;99.90;;;;;;5053740;28;20578;-66
2022/06/14 01:14:32;;;;;;;14.13;3.58;;;11.80;99.90;;;;;;5054410;28;20457;-66
2022/06/14 01:16:58;;;;;;;10.73;3.40;;;12.30;99.90;;;;;;5066682;28;20052;-66
2022/06/14 01:19:25;;;;;;;5.85;2.90;;;11.70;99.90;;;;;;5054714;28;20045;-66
2022/06/14 01:22:03;;;;;;;11.40;2.92;;;11.70;99.90;;;;;;5050318;28;20127;-66
2022/06/14 01:24:30;;;;;;;8.00;3.40;;;11.60;99.90;;;;;;5055702;28;20045;-67
2022/06/14 01:26:57;;;;;;;7.63;2.75;;;11.50;99.90;;;;;;5055216;28;20847;-66
2022/06/14 01:29:24;;;;;;;4.15;2.35;;;11.40;99.90;;;;;;5053383;28;20079;-67
2022/06/14 01:31:53;;;;;;;6.65;2.63;;;11.40;99.90;;;;;;5053193;28;20128;-67
2022/06/14 01:34:20;;;;;;;7.35;2.97;;;11.30;99.90;;;;;;5051862;28;20051;-67
2022/06/14 01:36:46;;;;;;;6.30;3.03;;;11.30;99.90;;;;;;5053689;28;20071;-67
2022/06/14 01:39:16;;;;;;;6.13;3.08;;;11.30;99.90;;;;;;5061354;28;20086;-66
2022/06/14 01:42:04;;;;;;;7.75;2.63;;;11.20;99.90;;;;;;5050666;28;20120;-66
2022/06/14 01:45:18;;;;;;;8.20;3.70;;;11.20;99.90;;;;;;5053693;28;20052;-66
2022/06/14 01:48:02;;;;;;;11.80;4.10;;;11.10;99.90;;;;;;5038014;28;21044;-66
2022/06/14 01:54:01;;;;;;;9.65;2.78;;;11.10;99.90;;;;;;5051149;28;20501;-66
2022/06/14 01:56:37;;;;;;;9.18;3.22;;;11.10;99.90;;;;;;5054904;28;20068;-66
2022/06/14 01:59:17;;;;;;;6.32;2.72;;;11.00;99.90;;;;;;5051543;28;20045;-66
2022/06/14 02:01:52;;;;;;;9.45;2.83;;;11.00;99.90;;;;;;5054160;28;20139;-66
2022/06/14 02:05:02;;;;;;;5.95;3.15;;;11.00;99.90;;;;;;5052643;28;20093;-66
2022/06/14 02:07:34;;;;;;;7.68;2.95;;;10.90;99.90;;;;;;5040795;28;20092;-66
2022/06/14 02:10:17;;;;;;;9.87;2.60;;;10.80;99.90;;;;;;5051500;28;20041;-66
2022/06/14 02:12:47;;;;;;;11.00;2.92;;;10.80;99.90;;;;;;5051486;28;22000;-66
2022/06/14 02:15:28;;;;;;;10.57;3.35;;;10.80;99.90;;;;;;5052421;28;20037;-66
2022/06/14 02:18:03;;;;;;;9.52;3.42;;;10.70;99.90;;;;;;5049625;28;20067;-66
2022/06/14 02:20:53;;;;;;;6.93;2.47;;;10.80;99.90;;;;;;5055120;28;20091;-66
2022/06/14 02:23:20;;;;;;;11.05;2.95;;;10.70;99.90;;;;;;5046819;28;20045;-67
2022/06/14 02:26:04;;;;;;;6.63;2.92;;;10.70;99.90;;;;;;5053919;28;20371;-67
2022/06/14 02:28:49;;;;;;;5.80;2.47;;;10.80;99.90;;;;;;5051268;28;20059;-66
2022/06/14 02:31:22;;;;;;;6.80;3.45;;;10.80;99.90;;;;;;5048273;28;20075;-67
2022/06/14 02:33:56;;;;;;;6.65;2.72;;;10.70;99.90;;;;;;5050981;28;20076;-66
2022/06/14 02:36:48;;;;;;;7.97;2.95;;;10.70;99.90;;;;;;5056004;28;20072;-66
2022/06/14 02:39:17;;;;;;;7.28;2.45;;;10.60;99.90;;;;;;5045300;28;20140;-66
2022/06/14 02:41:54;;;;;;;6.80;2.85;;;10.60;99.90;;;;;;5052414;28;20044;-66
2022/06/14 02:44:40;;;;;;;9.15;3.00;;;10.50;99.90;;;;;;5051843;28;20040;-67
2022/06/14 02:47:15;;;;;;;7.15;3.22;;;10.50;99.90;;;;;;5048801;28;20048;-66
2022/06/14 02:49:50;;;;;;;6.18;3.00;;;10.50;99.90;;;;;;5054649;28;20072;-66
2022/06/14 02:52:30;;;;;;;13.35;3.78;;;10.50;99.90;;;;;;5052606;28;20039;-67
2022/06/14 02:55:02;;;;;;;5.80;2.40;;;10.40;99.90;;;;;;5053911;28;20052;-66
2022/06/14 02:57:42;;;;;;;6.38;2.63;;;10.40;99.90;;;;;;5053796;28;20454;-66
2022/06/14 03:00:16;;;;;;;11.65;3.40;;;10.30;99.90;;;;;;5059716;28;20048;-66
2022/06/14 03:03:04;;;;;;;6.88;3.20;;;10.30;99.90;;;;;;5051641;28;20132;-66
2022/06/14 03:05:35;;;;;;;6.80;3.13;;;10.30;99.90;;;;;;5054708;28;20040;-66
2022/06/14 03:08:13;;;;;;;8.70;3.95;;;10.20;99.90;;;;;;5050998;28;20179;-66
2022/06/14 03:11:00;;;;;;;6.90;3.42;;;10.30;99.90;;;;;;5053162;28;20343;-66
2022/06/14 03:14:01;;;;;;;10.85;3.45;;;10.30;99.90;;;;;;5049004;28;20044;-66
2022/06/14 03:16:42;;;;;;;6.15;2.88;;;10.30;99.90;;;;;;5052766;28;20044;-66
2022/06/14 03:19:26;;;;;;;7.10;3.47;;;10.30;99.90;;;;;;5052262;28;20107;-66
2022/06/14 03:21:57;;;;;;;10.15;3.15;;;10.30;99.90;;;;;;5050416;28;20479;-66
2022/06/14 03:24:35;;;;;;;6.00;3.08;;;10.30;99.90;;;;;;5049228;28;20491;-66
2022/06/14 03:27:21;;;;;;;12.45;3.47;;;10.30;99.90;;;;;;5050436;28;20033;-66
2022/06/14 03:29:59;;;;;;;11.52;4.03;;;10.20;99.90;;;;;;5046924;28;21148;-66
2022/06/14 03:32:34;;;;;;;6.45;2.97;;;10.20;99.90;;;;;;5053675;28;20119;-66
2022/06/14 03:35:10;;;;;;;9.90;3.28;;;10.30;99.90;;;;;;5051186;28;20052;-66
2022/06/14 03:37:36;;;;;;;6.80;3.28;;;10.30;99.90;;;;;;5051480;28;20040;-66
2022/06/14 03:40:07;;;;;;;9.55;3.90;;;10.30;99.90;;;;;;5048953;28;20045;-66
2022/06/14 03:42:34;;;;;;;6.20;2.93;;;10.30;99.90;;;;;;5051304;28;20044;-66
2022/06/14 03:45:02;;;;;;;7.22;3.00;;;10.20;99.90;;;;;;5054297;28;20037;-66
2022/06/14 03:47:29;;;;;;;8.93;3.40;;;10.20;99.90;;;;;;5051018;28;20049;-66
2022/06/14 03:50:03;;;;;;;6.88;3.83;;;10.20;99.90;;;;;;5053654;28;20050;-66
2022/06/14 03:52:31;;;;;;;6.78;3.58;;;10.20;99.90;;;;;;5050363;28;20037;-66
2022/06/14 03:55:06;;;;;;;9.60;3.50;;;10.10;99.90;;;;;;5048737;28;20060;-67
2022/06/14 03:57:57;;;;;;;7.15;3.50;;;10.10;99.90;;;;;;5052980;28;20072;-66
2022/06/14 04:00:31;;;;;;;10.18;3.83;;;10.10;99.90;;;;;;5052536;28;20045;-66
2022/06/14 04:03:04;;;;;;;9.07;3.72;;;10.10;99.90;;;;;;5047176;28;20846;-67
2022/06/14 04:05:42;;;;;;;7.75;3.90;;;10.10;99.90;;;;;;5045782;28;20049;-66
2022/06/14 04:08:19;;;;;;;6.75;3.90;;;10.20;99.90;;;;;;5048531;28;20048;-66
2022/06/14 04:10:51;;;;;;;7.90;3.78;;;9.60;99.90;;;;;;5048855;28;20060;-66
2022/06/14 04:13:48;;;;;;;15.10;3.65;;;10.20;99.90;;;;;;5047451;28;20527;-66
2022/06/14 04:16:28;;;;;;;5.10;3.70;;;10.20;99.90;;;;;;5050611;28;20123;-66
2022/06/14 04:19:15;;;;;;;8.40;3.97;;;10.20;99.90;;;;;;5048605;28;20072;-66
2022/06/14 04:22:04;;;;;;;12.13;4.10;;;10.20;99.90;;;;;;5047933;28;20028;-66
2022/06/14 04:24:40;;;;;;;7.43;3.67;;;10.30;99.90;;;;;;5049760;28;20421;-66
2022/06/14 04:27:12;;;;;;;7.43;4.32;;;10.30;99.90;;;;;;5049273;28;20055;-66
2022/06/14 04:30:12;;;;;;;9.32;4.38;;;10.40;99.90;;;;;;5047653;28;20447;-66
2022/06/14 04:33:05;;;;;;;9.80;3.63;;;10.40;99.90;;;;;;5056508;28;20049;-67
2022/06/14 04:35:37;;;;;;;7.43;3.97;;;10.50;99.90;;;;;;5044866;28;20044;-66
2022/06/14 04:38:29;;;;;;;7.20;3.75;;;10.50;99.90;;;;;;5052029;28;20077;-66
2022/06/14 04:41:00;;;;;;;7.55;3.75;;;10.50;99.90;;;;;;5044322;28;20155;-66
2022/06/14 04:43:38;;;;;;;7.57;4.32;;;10.50;99.90;;;;;;5054578;28;20033;-67
2022/06/14 04:46:27;;;;;;;8.20;3.35;;;10.60;99.90;;;;;;5050150;28;20536;-66
2022/06/14 04:49:07;;;;;;;7.47;3.60;;;10.60;99.90;;;;;;5056095;28;20060;-66
2022/06/14 04:51:48;;;;;;;7.72;3.53;;;10.70;99.90;;;;;;5052523;28;20794;-66
2022/06/14 04:54:26;;;;;;;8.70;4.07;;;10.80;99.90;;;;;;5055151;28;20497;-66
2022/06/14 04:57:02;;;;;;;6.75;3.40;;;10.90;99.90;;;;;;5042367;28;20064;-66
2022/06/14 04:59:37;;;;;;;8.05;3.50;;;11.00;99.90;;;;;;5054702;28;20127;-66
2022/06/14 05:02:20;;;;;;;5.65;2.95;;;11.00;99.90;;;;;;5054227;28;20092;-66
2022/06/14 05:04:56;;;;;;;9.63;3.35;;;11.00;99.90;;;;;;5053700;28;20162;-66
2022/06/14 05:07:33;;;;;;;7.35;3.38;;;11.10;99.90;;;;;;5053020;28;20083;-67
2022/06/14 05:10:07;;;;;;;5.55;3.40;;;11.20;99.90;;;;;;5051601;28;20045;-66
2022/06/14 05:12:40;;;;;;;25.52;4.40;;;11.20;99.90;;;;;;5050800;28;20639;-66
2022/06/14 05:15:12;;;;;;;8.27;3.33;;;11.20;99.90;;;;;;5053428;28;20044;-66
2022/06/14 05:17:59;;;;;;;9.65;3.17;;;11.30;99.90;;;;;;5060328;28;20070;-66
2022/06/14 05:20:49;;;;;;;5.63;2.85;;;11.40;99.90;;;;;;5052533;28;20117;-66
2022/06/14 05:23:47;;;;;;;9.60;3.28;;;11.40;99.90;;;;;;5047130;28;20048;-66
2022/06/14 05:26:33;;;;;;;4.30;2.80;;;10.40;99.90;;;;;;5050801;28;20091;-66
2022/06/14 05:29:22;;;;;;;12.07;3.40;;;11.60;99.90;;;;;;5049969;28;20115;-67
2022/06/14 05:31:59;;;;;;;6.18;3.30;;;11.60;99.90;;;;;;5052193;28;20041;-66
2022/06/14 05:35:01;;;;;;;10.23;3.22;;;11.70;99.90;;;;;;5054954;28;20049;-66
2022/06/14 05:37:52;;;;;;;11.52;3.63;;;11.70;99.90;;;;;;5051035;28;20491;-66
2022/06/14 05:40:33;;;;;;;5.35;2.67;;;11.80;99.90;;;;;;5048941;28;20049;-67
2022/06/14 05:43:16;;;;;;;8.10;2.70;;;11.80;99.90;;;;;;5045453;28;20080;-67
2022/06/14 05:45:54;;;;;;;7.90;3.10;;;11.90;99.90;;;;;;5054100;28;20119;-66
2022/06/14 05:48:29;;;;;;;7.85;3.30;;;11.90;99.90;;;;;;5048933;28;20041;-68
2022/06/14 05:50:57;;;;;;;7.88;2.80;;;12.00;99.90;;;;;;5049679;28;20048;-66
2022/06/14 05:53:44;;;;;;;7.40;2.97;;;12.00;99.90;;;;;;5051821;28;20060;-67
2022/06/14 05:56:23;;;;;;;6.63;3.45;;;12.10;99.90;;;;;;5053267;28;20052;-66
2022/06/14 05:58:59;;;;;;;7.93;3.47;;;12.10;99.90;;;;;;5050198;28;20043;-67
2022/06/14 06:01:30;;;;;;;6.15;2.92;;;12.10;99.90;;;;;;5059522;28;20044;-66
2022/06/14 06:04:20;;;;;;;5.07;2.43;;;12.10;99.90;;;;;;5049197;28;20043;-66
2022/06/14 06:06:51;;;;;;;10.15;3.05;;;12.20;99.90;;;;;;5052177;28;20049;-67
2022/06/14 06:09:30;;;;;;;5.68;2.85;;;12.30;99.90;;;;;;5050804;28;20428;-66
2022/06/14 06:12:03;;;;;;;7.45;2.95;;;12.40;99.90;;;;;;5051299;28;20049;-66
2022/06/14 06:14:38;;;;;;;12.77;3.55;;;12.60;99.90;;;;;;5053227;28;20507;-66
2022/06/14 06:17:10;;;;;;;6.25;3.38;;;12.50;99.90;;;;;;5052318;28;20114;-66
2022/06/14 06:19:41;;;;;;;6.15;2.95;;;12.60;99.90;;;;;;5051217;28;20049;-67
2022/06/14 06:22:43;;;;;;;13.57;3.97;;;12.90;99.90;;;;;;5053063;28;20110;-66
2022/06/14 06:25:23;;;;;;;11.40;3.13;;;12.80;99.90;;;;;;5051765;28;20056;-66
2022/06/14 06:28:36;;;;;;;5.82;2.80;;;12.90;99.90;;;;;;5052565;28;20052;-66
2022/06/14 06:31:09;;;;;;;11.10;3.25;;;13.00;99.90;;;;;;5041556;28;20045;-67
2022/06/14 06:33:40;;;;;;;7.15;2.70;;;13.00;99.90;;;;;;5046428;28;20037;-66
2022/06/14 06:36:12;;;;;;;4.63;2.28;;;13.10;99.90;;;;;;5047671;28;20379;-67
2022/06/14 06:39:02;;;;;;;6.90;2.35;;;13.20;99.90;;;;;;5046530;28;20099;-66
2022/06/14 06:41:54;;;;;;;6.80;2.30;;;13.30;99.90;;;;;;5049342;28;20517;-67
2022/06/14 06:44:20;;;;;;;5.03;2.15;;;13.40;99.90;;;;;;5052312;28;20040;-67
2022/06/14 06:46:53;;;;;;;7.45;2.80;;;13.50;99.90;;;;;;5050699;28;20520;-68
2022/06/14 06:49:29;;;;;;;9.65;2.30;;;13.60;99.90;;;;;;5053349;28;20409;-66
2022/06/14 06:52:01;;;;;;;7.43;2.47;;;13.70;99.90;;;;;;5054226;28;20041;-66
2022/06/14 06:54:34;;;;;;;7.93;2.07;;;13.80;99.90;;;;;;5055089;28;20532;-66
2022/06/14 06:57:01;;;;;;;5.07;1.50;;;13.80;99.90;;;;;;5050284;28;20079;-65
2022/06/14 06:59:40;;;;;;;7.68;2.20;;;13.90;99.90;;;;;;5048816;28;20847;-66
2022/06/14 07:02:20;;;;;;;7.38;2.03;;;14.00;99.90;;;;;;5049719;28;20053;-66
2022/06/14 07:05:03;;;;;;;7.00;2.30;;;14.10;99.90;;;;;;5044486;28;20037;-68
2022/06/14 07:07:55;;;;;;;3.85;1.48;;;14.10;99.90;;;;;;5049644;28;20040;-66
2022/06/14 07:10:34;;;;;;;4.55;1.55;;;14.20;99.90;;;;;;5054178;28;20060;-67
2022/06/14 07:13:11;;;;;;;5.57;1.83;;;14.30;99.90;;;;;;5063841;28;20094;-66
2022/06/14 07:15:57;;;;;;;9.15;2.63;;;14.40;99.90;;;;;;5045996;28;20053;-66
2022/06/14 07:19:09;;;;;;;4.35;1.35;;;14.40;99.90;;;;;;5060828;28;20065;-70
2022/06/14 07:21:42;;;;;;;2.28;1.30;;;14.50;99.90;;;;;;5037795;28;20075;-70
2022/06/14 07:24:19;;;;;;;3.47;1.13;;;14.50;99.90;;;;;;5046344;28;20041;-71
2022/06/14 07:26:52;;;;;;;5.05;1.42;;;14.60;99.90;;;;;;5062431;28;20045;-70
2022/06/14 07:29:35;;;;;;;2.45;1.23;;;14.60;99.90;;;;;;5050792;28;20033;-71
2022/06/14 07:32:27;;;;;;;6.07;1.35;;;14.70;99.90;;;;;;5053030;28;20144;-71
2022/06/14 07:34:54;;;;;;;6.03;1.73;;;14.70;99.90;;;;;;5053701;28;20064;-72
2022/06/14 07:37:32;;;;;;;5.53;1.60;;;14.80;99.90;;;;;;5045489;28;20041;-71
2022/06/14 07:40:20;;;;;;;7.78;1.15;;;14.90;99.90;;;;;;5050887;28;20131;-71
2022/06/14 07:43:12;;;;;;;7.00;1.50;;;15.00;99.90;;;;;;5046067;28;20123;-73
2022/06/14 07:45:46;;;;;;;5.50;1.17;;;15.00;99.90;;;;;;5048039;28;20151;-64
2022/06/14 07:48:18;;;;;;;3.22;1.10;;;15.10;99.90;;;;;;5044352;28;20562;-72
2022/06/14 07:50:51;;;;;;;3.08;1.35;;;15.30;99.90;;;;;;5047280;28;20063;-71
2022/06/14 07:53:34;;;;;;;4.03;1.30;;;15.40;99.90;;;;;;5051722;28;20060;-71
2022/06/14 07:56:22;;;;;;;4.82;1.73;;;14.20;99.90;;;;;;5047459;28;20049;-71
2022/06/14 07:59:07;;;;;;;3.53;1.08;;;15.60;99.90;;;;;;5051453;28;20044;-72
2022/06/14 08:01:35;;;;;;;4.03;1.45;;;15.70;99.90;;;;;;5045075;28;20049;-71
2022/06/14 08:04:07;;;;;;;11.63;1.63;;;15.90;99.90;;;;;;5044318;28;20041;-72
2022/06/14 08:06:35;;;;;;;2.95;1.13;;;16.00;99.90;;;;;;5049508;28;20041;-71
2022/06/14 08:09:19;;;;;;;12.55;1.67;;;16.10;99.90;;;;;;5047943;28;20052;-71
2022/06/14 08:11:54;;;;;;;3.47;1.38;;;16.20;99.90;;;;;;5048803;28;20112;-69
2022/06/14 08:14:31;;;;;;;3.70;1.30;;;16.20;99.90;;;;;;5048957;28;20049;-74
2022/06/14 08:16:59;;;;;;;1.90;1.38;;;16.30;99.90;;;;;;5054378;28;20489;-74
2022/06/14 08:19:50;;;;;;;1.95;1.08;;;16.40;99.90;;;;;;5053895;28;20053;-71
2022/06/14 08:22:23;;;;;;;3.42;1.52;;;16.50;99.90;;;;;;5049346;28;20056;-71
2022/06/14 08:24:55;;;;;;;2.53;1.25;;;16.70;99.90;;;;;;5053310;28;20040;-72
2022/06/14 08:27:27;;;;;;;2.53;1.17;;;16.90;99.90;;;;;;5055414;28;20049;-71
2022/06/14 08:29:53;;;;;;;;;;;16.90;99.90;;;;;;5040775;28;20056;-72
2022/06/14 08:32:37;;;;;;;4.43;1.15;;;16.80;99.90;;;;;;5056245;28;19924;-72
2022/06/14 08:35:06;;;;;;;2.13;1.10;;;16.80;99.90;;;;;;5052509;28;20200;-72
2022/06/14 08:37:36;;;;;;;1.80;0.70;;;16.80;99.90;;;;;;5049256;28;20080;-71
2022/06/14 08:40:30;;;;;;;2.15;1.10;;;16.90;99.90;;;;;;5060923;28;20120;-72
2022/06/14 08:43:08;;;;;;;2.05;1.30;;;17.00;99.90;;;;;;5045619;28;20517;-74
2022/06/14 08:45:43;;;;;;;2.42;1.08;;;17.10;99.90;;;;;;5049615;28;20037;-73
2022/06/14 08:48:36;;;;;;;6.07;1.95;;;17.00;99.90;;;;;;5051717;28;20095;-73
2022/06/14 08:51:11;;;;;;;2.13;0.82;;;17.10;99.90;;;;;;5052921;28;20045;-72
2022/06/14 08:54:08;;;;;;;2.65;1.02;;;17.10;99.90;;;;;;5047651;28;20043;-72
2022/06/14 08:57:02;;;;;;;3.22;1.02;;;17.10;99.90;;;;;;5051234;28;20098;-72
2022/06/14 08:59:51;;;;;;;5.00;1.08;;;17.20;99.90;;;;;;5046813;28;20055;-72
2022/06/14 09:02:41;;;;;;;4.43;1.10;;;17.30;99.90;;;;;;5048682;28;20064;-73
2022/06/14 09:05:28;;;;;;;2.88;1.30;;;17.30;99.90;;;;;;5049759;28;20494;-72
2022/06/14 09:08:25;;;;;;;1.80;1.00;;;17.30;99.90;;;;;;5048321;28;20125;-72
2022/06/14 09:11:15;;;;;;;3.88;1.17;;;17.30;99.90;;;;;;5047660;28;20096;-73
2022/06/14 09:14:00;;;;;;;2.67;1.25;;;17.20;99.90;;;;;;5046780;28;20068;-72
2022/06/14 09:16:50;;;;;;;3.78;1.13;;;17.20;99.90;;;;;;5050536;28;20072;-72
2022/06/14 09:19:25;;;;;;;2.60;1.85;;;17.00;99.90;;;;;;5056856;28;20057;-72
2022/06/14 09:22:31;;;;;;;1.58;1.17;;;17.00;99.90;;;;;;5048379;28;20103;-73
2022/06/14 09:25:24;;;;;;;2.65;0.95;;;16.90;99.90;;;;;;5042357;28;20060;-72
2022/06/14 09:28:23;;;;;;;6.05;1.65;;;16.80;99.90;;;;;;5046092;28;20071;-74
2022/06/14 09:31:03;;;;;;;2.92;1.60;;;16.70;99.90;;;;;;5049135;28;20515;-75
2022/06/14 09:33:38;;;;;;;7.50;1.63;;;16.60;99.90;;;;;;5054815;28;20082;-72
2022/06/14 09:36:10;;;;;;;3.50;1.50;;;16.70;99.90;;;;;;5056309;28;20056;-72
2022/06/14 09:38:50;;;;;;;2.97;1.38;;;16.90;99.90;;;;;;5061372;28;20554;-72
2022/06/14 09:41:28;;;;;;;4.72;1.58;;;17.10;99.90;;;;;;5062072;28;20071;-72
2022/06/14 09:44:15;;;;;;;4.50;1.30;;;17.40;99.90;;;;;;5052650;28;20045;-72
2022/06/14 09:47:16;;;;;;;4.72;1.00;;;17.70;99.90;;;;;;5051325;28;20120;-73
2022/06/14 09:49:50;;;;;;;1.85;1.10;;;17.80;99.90;;;;;;5059023;28;20052;-74
2022/06/14 09:52:31;;;;;;;4.32;1.98;;;17.80;99.90;;;;;;5054720;28;20079;-72
2022/06/14 09:55:12;;;;;;;2.67;1.05;;;17.70;99.90;;;;;;5053435;28;20057;-72
2022/06/14 09:57:46;;;;;;;3.33;1.20;;;17.60;99.90;;;;;;5050498;28;20131;-74
2022/06/14 10:00:27;;;;;;;4.00;1.30;;;17.40;99.90;;;;;;5054599;28;20041;-73
2022/06/14 10:02:53;;;;;;;3.13;1.45;;;17.50;99.90;;;;;;5053839;28;20501;-72
2022/06/14 10:05:33;;;;;;;3.53;1.20;;;17.10;99.90;;;;;;5049790;28;20052;-71
2022/06/14 10:08:11;;;;;;;2.55;1.00;;;17.00;99.90;;;;;;5046825;28;20102;-71
2022/06/14 10:10:58;;;;;;;3.38;1.83;;;16.90;99.90;;;;;;5056084;28;20041;-71
2022/06/14 10:14:02;;;;;;;3.85;1.15;;;16.70;99.90;;;;;;5049579;28;20052;-72
2022/06/14 10:16:46;;;;;;;3.40;1.35;;;16.60;99.90;;;;;;5051212;28;20044;-74
2022/06/14 10:19:49;;;;;;;5.20;1.83;;;16.60;99.90;;;;;;5046897;28;20059;-73
2022/06/14 10:22:32;;;;;;;5.57;1.88;;;16.60;99.90;;;;;;5040173;28;20068;-72
2022/06/14 10:25:16;;;;;;;3.05;1.40;;;16.60;99.90;;;;;;5050353;28;20088;-74
2022/06/14 10:28:16;;;;;;;4.43;1.77;;;16.50;99.90;;;;;;5054190;28;20053;-72
2022/06/14 10:31:08;;;;;;;5.05;1.70;;;16.60;99.90;;;;;;5051262;28;20041;-74
2022/06/14 10:33:59;;;;;;;6.13;2.13;;;16.60;99.90;;;;;;5050014;28;20047;-72
2022/06/14 10:36:28;;;;;;;5.50;1.92;;;16.60;99.90;;;;;;5053023;28;20138;-70
2022/06/14 10:39:22;;;;;;;6.00;1.77;;;16.70;99.90;;;;;;5046676;28;20049;-69
2022/06/14 10:42:08;;;;;;;5.65;1.92;;;16.60;99.90;;;;;;5050942;28;20067;-71
2022/06/14 10:44:52;;;;;;;3.05;1.58;;;16.70;99.90;;;;;;5050425;28;20167;-68
2022/06/14 10:47:54;;;;;;;10.18;2.22;;;16.70;99.90;;;;;;5047124;28;20354;-68
2022/06/14 10:50:49;;;;;;;5.70;1.63;;;16.80;99.90;;;;;;5045826;28;20123;-70
2022/06/14 10:53:31;;;;;;;5.75;1.40;;;16.90;99.90;;;;;;5047291;28;20052;-69
2022/06/14 10:56:22;;;;;;;5.60;1.55;;;17.00;99.90;;;;;;5047587;28;20060;-70
2022/06/14 10:59:16;;;;;;;4.60;1.75;;;17.10;99.90;;;;;;5056001;28;20049;-69
2022/06/14 11:01:44;;;;;;;2.95;1.88;;;17.20;99.90;;;;;;5051080;28;20053;-69
2022/06/14 11:04:19;;;;;;;7.00;1.92;;;17.40;99.90;;;;;;5044740;28;20048;-69
2022/06/14 11:07:19;;;;;;;1.58;1.30;;;17.40;99.90;;;;;;5048546;28;20107;-72
2022/06/14 11:10:12;;;;;;;6.90;1.73;;;17.40;99.90;;;;;;5050656;28;20040;-71
2022/06/14 11:13:30;;;;;;;3.13;1.90;;;17.40;99.90;;;;;;5050938;28;20048;-70
2022/06/14 11:16:00;;;;;;;3.67;1.60;;;17.30;99.90;;;;;;5030408;28;20053;-69
2022/06/14 11:18:47;;;;;;;3.63;2.00;;;17.30;99.90;;;;;;5045281;28;20075;-69
2022/06/14 11:21:24;;;;;;;6.45;1.27;;;17.40;99.90;;;;;;5057502;28;20053;-70
2022/06/14 11:24:01;;;;;;;3.15;2.05;;;17.40;99.90;;;;;;5048245;28;20631;-70
2022/06/14 11:26:41;;;;;;;5.22;1.60;;;17.40;99.90;;;;;;5048296;28;20493;-69
2022/06/14 11:29:20;;;;;;;3.28;1.42;;;17.50;99.90;;;;;;5053318;28;20465;-69
2022/06/14 11:32:05;;;;;;;2.25;1.20;;;17.40;99.90;;;;;;5049998;28;20091;-69
2022/06/14 11:35:10;;;;;;;4.18;1.65;;;17.60;99.90;;;;;;5050631;28;20032;-68
2022/06/14 11:37:51;;;;;;;9.07;2.30;;;17.60;99.90;;;;;;5052515;28;20040;-70
2022/06/14 11:40:24;;;;;;;2.63;1.23;;;17.70;99.90;;;;;;5047238;28;20463;-69
2022/06/14 11:43:03;;;;;;;2.35;1.00;;;17.80;99.90;;;;;;5051700;28;20053;-69
2022/06/14 11:46:02;;;;;;;2.90;1.30;;;17.90;99.90;;;;;;5052201;28;20568;-69
2022/06/14 11:48:53;;;;;;;2.15;1.00;;;18.00;99.90;;;;;;5060024;28;20048;-73
2022/06/14 11:51:51;;;;;;;5.80;1.70;;;18.00;99.90;;;;;;5054488;28;20045;-66
2022/06/14 11:54:28;;;;;;;3.42;1.23;;;18.10;99.90;;;;;;5045448;28;20053;-67
2022/06/14 11:57:09;;;;;;;3.63;1.60;;;18.10;99.90;;;;;;5052732;28;20102;-69
2022/06/14 11:59:38;;;;;;;3.03;1.30;;;18.10;99.90;;;;;;5055771;28;20440;-68
2022/06/14 12:02:31;;;;;;;1.92;1.00;;;18.10;99.90;;;;;;5051345;28;20792;-68
2022/06/14 12:05:27;;;;;;;3.15;1.35;;;18.20;99.90;;;;;;5050973;28;20041;-68
2022/06/14 12:08:01;;;;;;;2.05;1.10;;;18.20;99.90;;;;;;5048302;28;20099;-68
2022/06/14 12:10:26;;;;;;;7.68;1.60;;;18.30;99.90;;;;;;5049740;28;20045;-68
2022/06/14 12:13:07;;;;;;;3.58;1.40;;;18.50;99.90;;;;;;5049341;28;20139;-67
2022/06/14 12:15:46;;;;;;;6.30;1.70;;;18.90;99.90;;;;;;5048868;28;20045;-68
2022/06/14 12:18:16;;;;;;;4.65;1.55;;;19.00;99.90;;;;;;5049023;28;20067;-68
2022/06/14 12:20:57;;;;;;;2.55;1.30;;;19.00;99.90;;;;;;5049454;28;20060;-68
2022/06/14 12:23:32;;;;;;;4.45;1.20;;;18.90;99.90;;;;;;5048376;28;20048;-67
2022/06/14 12:29:21;;;;;;;7.38;2.78;;;18.70;99.90;;;;;;5048477;28;20456;-67
2022/06/14 12:32:15;;;;;;;1.65;1.38;;;18.60;99.90;;;;;;5043901;28;20059;-67
2022/06/14 12:34:48;;;;;;;1.80;1.30;;;18.50;99.90;;;;;;5049279;28;20124;-67
2022/06/14 12:37:33;;;;;;;2.58;1.05;;;18.40;99.90;;;;;;5047754;28;20053;-68
2022/06/14 12:40:01;;;;;;;3.17;1.40;;;18.70;99.90;;;;;;5047292;28;20099;-67
2022/06/14 12:42:55;;;;;;;2.83;1.45;;;18.20;99.90;;;;;;5047781;28;20045;-67
2022/06/14 12:45:27;;;;;;;2.28;1.20;;;18.10;99.90;;;;;;5049336;28;20056;-68
2022/06/14 12:48:13;;;;;;;2.35;1.23;;;18.00;99.90;;;;;;5048808;28;20437;-68
2022/06/14 12:50:44;;;;;;;3.08;1.50;;;17.90;99.90;;;;;;5048413;28;20074;-68
2022/06/14 12:53:28;;;;;;;3.42;1.17;;;17.90;99.90;;;;;;5048496;28;20051;-68
2022/06/14 12:55:59;;;;;;;6.85;1.27;;;17.90;99.90;;;;;;5047310;28;20044;-68
2022/06/14 12:58:48;;;;;;;2.63;0.93;;;18.00;99.90;;;;;;5049505;28;20064;-67
2022/06/14 13:01:19;;;;;;;2.53;1.23;;;18.00;99.90;;;;;;5048236;28;20051;-67
2022/06/14 13:03:55;;;;;;;3.53;1.20;;;18.10;99.90;;;;;;5050198;28;20120;-68
2022/06/14 13:06:26;;;;;;;3.30;1.38;;;18.10;99.90;;;;;;5050496;28;20059;-68
2022/06/14 13:09:22;;;;;;;2.88;1.30;;;18.20;99.90;;;;;;5046976;28;20057;-68
2022/06/14 13:12:04;;;;;;;6.93;1.80;;;18.30;99.90;;;;;;5046357;28;20099;-67
2022/06/14 13:14:37;;;;;;;1.58;1.00;;;18.30;99.90;;;;;;5048378;28;20045;-67
2022/06/14 13:17:32;;;;;;;7.10;1.95;;;18.30;99.90;;;;;;5047312;28;20053;-68
2022/06/14 13:20:23;;;;;;;1.95;1.63;;;18.30;99.90;;;;;;5046684;28;20421;-68
2022/06/14 13:23:10;;;;;;;2.88;1.27;;;18.20;99.90;;;;;;5048434;28;20115;-67
2022/06/14 13:26:10;;;;;;;2.47;0.98;;;18.20;99.90;;;;;;5047790;28;20496;-68
2022/06/14 13:29:01;;;;;;;2.90;1.27;;;18.20;99.90;;;;;;5048154;28;20045;-68
2022/06/14 13:32:01;;;;;;;2.78;1.70;;;18.30;99.90;;;;;;5046700;28;20056;-67
2022/06/14 13:34:45;;;;;;;5.57;1.40;;;18.20;99.90;;;;;;5048168;28;20088;-67
2022/06/14 13:37:52;;;;;;;3.95;1.80;;;18.20;99.90;;;;;;5046776;28;20049;-68
2022/06/14 13:40:44;;;;;;;2.58;2.05;;;18.20;99.90;;;;;;5047353;28;20670;-68
2022/06/14 13:43:33;;;;;;;4.07;1.73;;;18.20;99.90;;;;;;5047536;28;20381;-68
2022/06/14 13:46:17;;;;;;;4.07;1.77;;;18.20;99.90;;;;;;5047202;28;20083;-67
2022/06/14 13:48:57;;;;;;;3.55;1.80;;;18.20;99.90;;;;;;5047803;28;20057;-67
2022/06/14 13:51:37;;;;;;;4.97;1.60;;;18.20;99.90;;;;;;5047744;28;20044;-68
2022/06/14 13:54:14;;;;;;;2.90;1.98;;;18.30;99.90;;;;;;5046764;28;20460;-67
2022/06/14 13:56:54;;;;;;;2.63;1.65;;;18.20;99.90;;;;;;5047715;28;20045;-68
2022/06/14 13:59:26;;;;;;;3.83;1.70;;;18.30;99.90;;;;;;5046926;28;20120;-69